createdAt,value
2016-09-27T00:00:08.114Z,94.07
2016-09-27T00:01:08.127Z,94.36
2016-09-27T00:02:08.144Z,93.98
2016-09-27T00:03:08.166Z,94.07
2016-09-27T00:04:08.188Z,94.07
2016-09-27T00:05:08.199Z,94.31
2016-09-27T00:06:08.533Z,93.88
2016-09-27T00:07:08.244Z,94.07
2016-09-27T00:08:08.268Z,93.98
2016-09-27T00:09:08.277Z,94.27
2016-09-27T00:10:08.294Z,94.27
2016-09-27T00:11:08.315Z,94.36
2016-09-27T00:12:08.329Z,94.93
2016-09-27T00:13:08.351Z,94.93
2016-09-27T00:14:08.366Z,95.12
2016-09-27T00:15:08.392Z,95.22
2016-09-27T00:16:08.403Z,95.08
2016-09-27T00:17:08.421Z,94.12
2016-09-27T00:18:08.438Z,94.07
2016-09-27T00:19:08.452Z,93.7
2016-09-27T00:20:08.493Z,93.98
2016-09-27T00:21:08.499Z,93.79
2016-09-27T00:22:08.513Z,93.88
2016-09-27T00:23:08.528Z,94.03
2016-09-27T00:24:08.553Z,94.31
2016-09-27T00:25:08.568Z,94.56
2016-09-27T00:26:08.601Z,94.27
2016-09-27T00:27:08.601Z,94.31
2016-09-27T00:28:08.625Z,94.03
2016-09-27T00:29:08.644Z,94.12
2016-09-27T00:30:08.651Z,94.12
2016-09-27T00:31:08.693Z,94.51
2016-09-27T00:32:08.697Z,93.74
2016-09-27T00:33:08.709Z,93.74
2016-09-27T00:34:08.749Z,94.03
2016-09-27T00:35:08.750Z,94.17
2016-09-27T00:36:08.776Z,93.93
2016-09-27T00:37:08.778Z,93.79
2016-09-27T00:38:08.812Z,94.36
2016-09-27T00:39:08.823Z,94.07
2016-09-27T00:40:08.858Z,94.07
2016-09-27T00:41:08.866Z,94.07
2016-09-27T00:42:08.876Z,93.31
2016-09-27T00:43:08.904Z,93.41
2016-09-27T00:44:08.920Z,93.51
2016-09-27T00:45:08.935Z,93.79
2016-09-27T00:46:08.956Z,93.31
2016-09-27T00:47:08.971Z,93.51
2016-09-27T00:48:08.985Z,93.6
2016-09-27T00:49:09.013Z,93.51
2016-09-27T00:50:09.041Z,93.88
2016-09-27T00:51:09.048Z,93.7
2016-09-27T00:52:09.063Z,93.88
2016-09-27T00:53:09.077Z,93.7
2016-09-27T00:54:09.106Z,94.07
2016-09-27T00:55:09.120Z,94.07
2016-09-27T00:56:09.142Z,93.98
2016-09-27T00:57:09.151Z,94.27
2016-09-27T00:58:09.178Z,94.46
2016-09-27T00:59:09.194Z,94.56
2016-09-27T01:00:09.212Z,94.65
2016-09-27T01:01:09.218Z,94.65
2016-09-27T01:02:09.262Z,94.46
2016-09-27T01:03:09.290Z,94.27
2016-09-27T01:04:09.295Z,94.27
2016-09-27T01:05:09.295Z,94.17
2016-09-27T01:06:09.326Z,94.27
2016-09-27T01:07:09.335Z,94.07
2016-09-27T01:08:09.358Z,94.36
2016-09-27T01:09:09.366Z,94.27
2016-09-27T01:10:09.395Z,93.98
2016-09-27T01:11:09.401Z,94.46
2016-09-27T01:12:09.436Z,94.32
2016-09-27T01:13:09.449Z,94.27
2016-09-27T01:14:09.481Z,94.74
2016-09-27T01:15:09.820Z,94.46
2016-09-27T01:16:09.818Z,94.56
2016-09-27T01:17:09.521Z,94.65
2016-09-27T01:18:09.540Z,94.56
2016-09-27T01:19:09.569Z,94.56
2016-09-27T01:20:09.911Z,94.65
2016-09-27T01:21:09.591Z,94.56
2016-09-27T01:22:09.613Z,94.56
2016-09-27T01:23:09.630Z,94.65
2016-09-27T01:24:09.641Z,94.93
2016-09-27T01:25:09.659Z,94.84
2016-09-27T01:26:09.685Z,95.03
2016-09-27T01:27:09.697Z,95.22
2016-09-27T01:28:09.721Z,94.56
2016-09-27T01:29:09.739Z,94.65
2016-09-27T01:30:09.756Z,94.46
2016-09-27T01:31:09.776Z,94.46
2016-09-27T01:32:09.791Z,94.74
2016-09-27T01:33:09.808Z,94.93
2016-09-27T01:34:09.841Z,94.65
2016-09-27T01:35:09.844Z,94.07
2016-09-27T01:36:09.870Z,94.07
2016-09-27T01:37:09.874Z,94.07
2016-09-27T01:38:09.900Z,94.07
2016-09-27T01:39:09.923Z,93.88
2016-09-27T01:40:09.942Z,94.07
2016-09-27T01:41:09.957Z,94.07
2016-09-27T01:42:09.968Z,94.07
2016-09-27T01:43:09.990Z,94.27
2016-09-27T01:44:10.012Z,94.27
2016-09-27T01:45:10.041Z,94.07
2016-09-27T01:46:10.057Z,94.07
2016-09-27T01:47:10.063Z,94.07
2016-09-27T01:48:10.079Z,94.07
2016-09-27T01:49:10.098Z,94.65
2016-09-27T01:50:10.119Z,94.56
2016-09-27T01:51:10.137Z,94.36
2016-09-27T01:52:10.149Z,94.46
2016-09-27T01:53:10.172Z,94.93
2016-09-27T01:54:10.207Z,94.65
2016-09-27T01:55:10.223Z,94.84
2016-09-27T01:56:10.576Z,94.65
2016-09-27T01:57:10.251Z,94.74
2016-09-27T01:58:10.269Z,94.74
2016-09-27T01:59:10.286Z,94.46
2016-09-27T02:00:10.301Z,94.56
2016-09-27T02:01:10.322Z,94.46
2016-09-27T02:02:10.348Z,94.36
2016-09-27T02:03:10.354Z,94.46
2016-09-27T02:04:10.384Z,94.46
2016-09-27T02:05:10.392Z,94.74
2016-09-27T02:06:10.733Z,94.74
2016-09-27T02:07:10.421Z,94.84
2016-09-27T02:08:10.455Z,94.65
2016-09-27T02:09:10.461Z,94.36
2016-09-27T02:10:10.487Z,94.74
2016-09-27T02:11:10.486Z,95.03
2016-09-27T02:12:10.518Z,94.46
2016-09-27T02:13:10.542Z,94.56
2016-09-27T02:14:10.569Z,94.56
2016-09-27T02:15:10.566Z,94.07
2016-09-27T02:16:10.596Z,94.07
2016-09-27T02:17:10.611Z,94.27
2016-09-27T02:18:10.638Z,94.65
2016-09-27T02:19:10.647Z,94.36
2016-09-27T02:20:10.680Z,94.46
2016-09-27T02:21:10.684Z,94.27
2016-09-27T02:22:10.705Z,94.27
2016-09-27T02:23:10.725Z,94.56
2016-09-27T02:24:10.749Z,94.27
2016-09-27T02:25:10.764Z,94.36
2016-09-27T02:26:10.766Z,94.27
2016-09-27T02:27:10.799Z,94.27
2016-09-27T02:28:10.829Z,94.56
2016-09-27T02:29:10.825Z,93.98
2016-09-27T02:30:10.843Z,94.07
2016-09-27T02:31:10.863Z,94.07
2016-09-27T02:32:10.894Z,94.27
2016-09-27T02:33:10.901Z,94.27
2016-09-27T02:34:10.930Z,94.07
2016-09-27T02:35:10.937Z,94.56
2016-09-27T02:36:10.967Z,94.51
2016-09-27T02:37:10.974Z,94.65
2016-09-27T02:38:11.007Z,94.65
2016-09-27T02:39:11.016Z,94.51
2016-09-27T02:40:11.047Z,94.65
2016-09-27T02:41:11.049Z,94.65
2016-09-27T02:42:11.092Z,94.74
2016-09-27T02:43:11.088Z,95.12
2016-09-27T02:44:11.100Z,95.03
2016-09-27T02:45:11.128Z,95.12
2016-09-27T02:46:11.147Z,95.08
2016-09-27T02:47:11.163Z,95.51
2016-09-27T02:48:11.178Z,95.03
2016-09-27T02:49:11.191Z,95.22
2016-09-27T02:50:11.210Z,95.22
2016-09-27T02:51:11.239Z,94.65
2016-09-27T02:52:11.251Z,94.36
2016-09-27T02:53:11.267Z,94.27
2016-09-27T02:54:11.294Z,94.56
2016-09-27T02:55:11.310Z,94.36
2016-09-27T02:56:11.335Z,94.27
2016-09-27T02:57:11.338Z,94.27
2016-09-27T02:58:11.368Z,94.27
2016-09-27T02:59:11.370Z,94.74
2016-09-27T03:00:11.399Z,95.03
2016-09-27T03:01:11.412Z,95.12
2016-09-27T03:02:11.430Z,94.74
2016-09-27T03:03:11.445Z,94.93
2016-09-27T03:04:11.466Z,95.32
2016-09-27T03:05:11.476Z,95.32
2016-09-27T03:06:11.515Z,94.74
2016-09-27T03:07:11.526Z,95.22
2016-09-27T03:08:11.551Z,95.03
2016-09-27T03:09:11.564Z,94.56
2016-09-27T03:10:11.572Z,94.46
2016-09-27T03:11:11.603Z,94.56
2016-09-27T03:12:11.616Z,94.84
2016-09-27T03:13:11.632Z,94.65
2016-09-27T03:14:11.658Z,94.46
2016-09-27T03:15:11.679Z,94.27
2016-09-27T03:16:11.689Z,94.65
2016-09-27T03:17:11.710Z,94.46
2016-09-27T03:18:11.724Z,94.36
2016-09-27T03:19:11.750Z,94.65
2016-09-27T03:20:11.758Z,94.56
2016-09-27T03:21:11.778Z,94.56
2016-09-27T03:22:11.796Z,94.93
2016-09-27T03:23:11.811Z,94.41
2016-09-27T03:24:11.829Z,94.46
2016-09-27T03:25:11.857Z,94.41
2016-09-27T03:26:11.887Z,94.07
2016-09-27T03:27:11.889Z,94.07
2016-09-27T03:28:11.925Z,94.07
2016-09-27T03:29:11.917Z,94.51
2016-09-27T03:30:11.949Z,94.56
2016-09-27T03:31:11.958Z,95.32
2016-09-27T03:32:11.980Z,95.27
2016-09-27T03:33:12.001Z,95.12
2016-09-27T03:34:12.024Z,95.65
2016-09-27T03:35:12.027Z,95.7
2016-09-27T03:36:12.055Z,95.61
2016-09-27T03:37:12.069Z,95.75
2016-09-27T03:38:12.093Z,95.56
2016-09-27T03:39:12.104Z,95.46
2016-09-27T03:40:12.125Z,95.08
2016-09-27T03:41:12.150Z,95.08
2016-09-27T03:42:12.174Z,94.98
2016-09-27T03:43:12.185Z,94.7
2016-09-27T03:44:12.195Z,94.98
2016-09-27T03:45:12.217Z,95.27
2016-09-27T03:46:12.243Z,95.17
2016-09-27T03:47:12.246Z,95.46
2016-09-27T03:48:12.266Z,95.08
2016-09-27T03:49:12.292Z,95.37
2016-09-27T03:50:12.319Z,95.84
2016-09-27T03:51:12.329Z,95.75
2016-09-27T03:52:12.342Z,96.22
2016-09-27T03:53:12.361Z,96.32
2016-09-27T03:54:12.385Z,95.56
2016-09-27T03:55:12.398Z,95.27
2016-09-27T03:56:12.432Z,95.46
2016-09-27T03:57:12.437Z,95.37
2016-09-27T03:58:12.461Z,96.22
2016-09-27T03:59:12.474Z,95.75
2016-09-27T04:02:12.530Z,95.65
2016-09-27T04:03:12.549Z,96.32
2016-09-27T04:04:12.560Z,95.75
2016-09-27T04:05:12.585Z,96.32
2016-09-27T04:06:12.598Z,95.75
2016-09-27T04:07:12.606Z,95.65
2016-09-27T04:08:12.641Z,96.22
2016-09-27T04:09:12.651Z,95.94
2016-09-27T04:10:12.666Z,96.22
2016-09-27T04:11:12.693Z,96.13
2016-09-27T04:12:12.719Z,96.22
2016-09-27T04:13:12.721Z,96.41
2016-09-27T04:14:12.749Z,95.94
2016-09-27T04:15:12.764Z,95.46
2016-09-27T04:16:12.779Z,95.84
2016-09-27T04:17:12.798Z,95.65
2016-09-27T04:18:12.819Z,95.37
2016-09-27T04:19:12.849Z,95.37
2016-09-27T04:20:12.851Z,95.65
2016-09-27T04:21:12.860Z,96.32
2016-09-27T04:22:12.876Z,95.94
2016-09-27T04:23:12.910Z,95.46
2016-09-27T04:24:12.927Z,95.56
2016-09-27T04:25:12.949Z,96.22
2016-09-27T04:26:12.953Z,95.17
2016-09-27T04:27:12.980Z,95.75
2016-09-27T04:28:12.993Z,95.84
2016-09-27T04:29:13.015Z,95.75
2016-09-27T04:30:13.035Z,96.41
2016-09-27T04:31:13.049Z,95.46
2016-09-27T04:32:13.061Z,95.37
2016-09-27T04:33:13.085Z,95.46
2016-09-27T04:34:13.106Z,95.37
2016-09-27T04:35:13.121Z,95.7
2016-09-27T04:36:13.141Z,95.37
2016-09-27T04:37:13.147Z,95.75
2016-09-27T04:38:13.175Z,95.94
2016-09-27T04:39:13.198Z,95.98
2016-09-27T04:40:13.214Z,95.79
2016-09-27T04:41:13.236Z,95.89
2016-09-27T04:42:13.238Z,95.89
2016-09-27T04:43:13.262Z,95.79
2016-09-27T04:44:13.287Z,95.89
2016-09-27T04:45:13.307Z,95.79
2016-09-27T04:46:13.311Z,96.08
2016-09-27T04:47:13.339Z,95.7
2016-09-27T04:48:13.363Z,95.89
2016-09-27T04:49:13.366Z,95.79
2016-09-27T04:50:13.396Z,95.79
2016-09-27T04:51:13.411Z,95.61
2016-09-27T04:52:13.434Z,95.61
2016-09-27T04:53:13.450Z,95.41
2016-09-27T04:54:13.471Z,95.79
2016-09-27T04:55:13.483Z,95.51
2016-09-27T04:56:13.490Z,95.32
2016-09-27T04:57:13.525Z,95.12
2016-09-27T04:58:13.544Z,94.93
2016-09-27T04:59:13.557Z,95.12
2016-09-27T05:00:13.578Z,95.03
2016-09-27T05:01:13.592Z,95.22
2016-09-27T05:02:13.620Z,95.12
2016-09-27T05:03:13.620Z,95.03
2016-09-27T05:04:13.649Z,95.03
2016-09-27T05:05:13.664Z,95.22
2016-09-27T05:06:13.673Z,95.03
2016-09-27T05:07:13.708Z,95.22
2016-09-27T05:08:13.730Z,94.74
2016-09-27T05:09:13.745Z,94.93
2016-09-27T05:10:13.763Z,95.22
2016-09-27T05:11:13.772Z,95.41
2016-09-27T05:12:13.805Z,95.41
2016-09-27T05:13:13.817Z,95.22
2016-09-27T05:14:13.827Z,95.32
2016-09-27T05:15:13.833Z,95.51
2016-09-27T05:16:13.889Z,95.51
2016-09-27T05:17:13.883Z,95.12
2016-09-27T05:18:13.907Z,95.89
2016-09-27T05:19:13.928Z,95.79
2016-09-27T05:20:13.945Z,95.79
2016-09-27T05:21:13.954Z,95.79
2016-09-27T05:22:13.976Z,95.61
2016-09-27T05:23:13.992Z,95.61
2016-09-27T05:24:14.020Z,95.7
2016-09-27T05:25:14.024Z,95.79
2016-09-27T05:26:14.058Z,95.7
2016-09-27T05:27:14.069Z,95.22
2016-09-27T05:28:14.090Z,95.22
2016-09-27T05:29:14.103Z,95.12
2016-09-27T05:30:14.126Z,94.74
2016-09-27T05:31:14.145Z,95.12
2016-09-27T05:32:14.156Z,95.12
2016-09-27T05:33:14.164Z,94.74
2016-09-27T05:34:14.199Z,94.74
2016-09-27T05:35:14.219Z,95.22
2016-09-27T05:36:14.238Z,95.22
2016-09-27T05:37:14.247Z,95.32
2016-09-27T05:38:14.285Z,95.03
2016-09-27T05:39:14.289Z,94.79
2016-09-27T05:40:14.316Z,95.08
2016-09-27T05:41:14.325Z,95.03
2016-09-27T05:42:14.348Z,94.65
2016-09-27T05:43:14.360Z,94.65
2016-09-27T05:44:14.385Z,94.65
2016-09-27T05:45:14.400Z,94.56
2016-09-27T05:46:14.419Z,94.36
2016-09-27T05:47:14.438Z,94.7
2016-09-27T05:48:14.471Z,94.31
2016-09-27T05:49:14.470Z,94.7
2016-09-27T05:50:14.482Z,94.7
2016-09-27T05:51:14.498Z,94.12
2016-09-27T05:52:14.535Z,94.12
2016-09-27T05:53:14.542Z,94.12
2016-09-27T05:54:14.574Z,94.03
2016-09-27T05:55:14.587Z,94.12
2016-09-27T05:56:14.603Z,94.12
2016-09-27T05:57:14.615Z,94.31
2016-09-27T05:58:14.633Z,94.22
2016-09-27T05:59:14.656Z,94.03
2016-09-27T06:00:14.673Z,94.41
2016-09-27T06:01:14.694Z,94.31
2016-09-27T06:02:14.711Z,93.98
2016-09-27T06:03:14.734Z,94.12
2016-09-27T06:04:14.751Z,93.98
2016-09-27T06:05:14.772Z,94.17
2016-09-27T06:06:14.777Z,93.79
2016-09-27T06:07:14.807Z,93.26
2016-09-27T06:08:14.828Z,93.21
2016-09-27T06:09:14.842Z,93.31
2016-09-27T06:10:14.863Z,93.6
2016-09-27T06:11:14.878Z,93.5
2016-09-27T06:12:14.902Z,93.6
2016-09-27T06:13:14.910Z,93.02
2016-09-27T06:14:14.939Z,92.83
2016-09-27T06:15:14.964Z,93.5
2016-09-27T06:16:14.979Z,93.02
2016-09-27T06:17:14.994Z,93.21
2016-09-27T06:18:15.009Z,93.02
2016-09-27T06:19:15.022Z,92.83
2016-09-27T06:20:15.044Z,92.88
2016-09-27T06:21:15.057Z,92.88
2016-09-27T06:22:15.085Z,92.88
2016-09-27T06:23:15.100Z,93.07
2016-09-27T06:24:15.125Z,92.97
2016-09-27T06:25:15.131Z,92.97
2016-09-27T06:26:15.153Z,93.55
2016-09-27T06:27:15.173Z,93.84
2016-09-27T06:28:15.202Z,93.36
2016-09-27T06:29:15.214Z,92.97
2016-09-27T06:30:15.255Z,92.74
2016-09-27T06:31:15.243Z,93.12
2016-09-27T06:32:15.292Z,92.83
2016-09-27T06:33:20.315Z,93.02
2016-09-27T06:34:15.306Z,92.83
2016-09-27T06:35:15.322Z,93.02
2016-09-27T06:36:15.328Z,92.45
2016-09-27T06:37:15.365Z,92.07
2016-09-27T06:38:15.366Z,92.45
2016-09-27T06:39:15.390Z,92.07
2016-09-27T06:40:15.415Z,91.88
2016-09-27T06:41:15.429Z,91.97
2016-09-27T06:42:15.449Z,91.88
2016-09-27T06:43:15.469Z,91.74
2016-09-27T06:44:15.478Z,91.78
2016-09-27T06:45:15.527Z,91.64
2016-09-27T06:46:15.519Z,91.64
2016-09-27T06:47:15.539Z,90.88
2016-09-27T06:48:15.559Z,91.16
2016-09-27T06:49:15.575Z,91.06
2016-09-27T06:50:15.610Z,90.59
2016-09-27T06:51:15.619Z,90.88
2016-09-27T06:52:15.649Z,90.44
2016-09-27T06:53:15.658Z,90.53
2016-09-27T06:54:15.674Z,90.16
2016-09-27T06:55:15.687Z,89.87
2016-09-27T06:56:15.996Z,89.87
2016-09-27T06:57:15.733Z,89.67
2016-09-27T06:58:15.761Z,89.77
2016-09-27T06:59:15.775Z,89.67
2016-09-27T07:00:15.793Z,89.2
2016-09-27T07:01:15.821Z,88.62
2016-09-27T07:02:15.826Z,88.72
2016-09-27T07:03:15.850Z,88.09
2016-09-27T07:04:15.871Z,87.43
2016-09-27T07:05:15.891Z,87.52
2016-09-27T07:06:15.917Z,86.66
2016-09-27T07:07:15.925Z,87.04
2016-09-27T07:08:15.940Z,86.57
2016-09-27T07:09:15.968Z,86.47
2016-09-27T07:10:26.267Z,86.66
2016-09-27T07:11:16.007Z,85.71
2016-09-27T07:12:16.027Z,85.94
2016-09-27T07:13:16.048Z,85.65
2016-09-27T07:14:16.060Z,84.88
2016-09-27T07:15:16.080Z,85.08
2016-09-27T07:16:16.102Z,84.88
2016-09-27T07:17:16.124Z,84.88
2016-09-27T07:18:16.150Z,84.45
2016-09-27T07:19:16.158Z,83.87
2016-09-27T07:20:16.212Z,83.87
2016-09-27T07:21:16.207Z,84.06
2016-09-27T07:22:16.230Z,83.39
2016-09-27T07:23:16.249Z,82.92
2016-09-27T07:24:16.273Z,82.92
2016-09-27T07:25:16.282Z,82.92
2016-09-27T07:26:16.315Z,82.82
2016-09-27T07:27:16.324Z,82.63
2016-09-27T07:28:16.340Z,82.29
2016-09-27T07:29:16.367Z,81.62
2016-09-27T07:30:16.400Z,81.23
2016-09-27T07:31:16.409Z,80.56
2016-09-27T07:32:16.421Z,80.27
2016-09-27T07:33:16.448Z,79.51
2016-09-27T07:34:16.478Z,78.84
2016-09-27T07:35:16.491Z,78.64
2016-09-27T07:36:16.514Z,78.27
2016-09-27T07:37:16.534Z,77.59
2016-09-27T07:38:16.554Z,77.88
2016-09-27T07:39:16.575Z,77.78
2016-09-27T07:40:16.588Z,77.59
2016-09-27T07:41:16.606Z,77.92
2016-09-27T07:42:16.641Z,77.44
2016-09-27T07:43:16.648Z,77.44
2016-09-27T07:44:16.670Z,77.82
2016-09-27T07:45:16.693Z,77.34
2016-09-27T07:46:16.714Z,77.06
2016-09-27T07:47:16.734Z,76.77
2016-09-27T07:48:16.756Z,77.06
2016-09-27T07:49:16.768Z,76.67
2016-09-27T07:50:16.789Z,77.25
2016-09-27T07:51:16.812Z,76.77
2016-09-27T07:52:16.851Z,77.06
2016-09-27T07:53:16.855Z,77.06
2016-09-27T07:54:16.883Z,76.39
2016-09-27T07:55:16.893Z,76.48
2016-09-27T07:56:16.919Z,76.64
2016-09-27T07:57:16.939Z,76.73
2016-09-27T07:58:16.956Z,77.31
2016-09-27T07:59:16.978Z,77.25
2016-09-27T08:00:16.994Z,76.77
2016-09-27T08:01:17.017Z,76.77
2016-09-27T08:02:17.042Z,76.29
2016-09-27T08:03:17.066Z,75.9
2016-09-27T08:04:17.090Z,75.81
2016-09-27T08:05:17.112Z,75.23
2016-09-27T08:06:17.127Z,75.08
2016-09-27T08:07:17.147Z,75.18
2016-09-27T08:08:17.167Z,75.75
2016-09-27T08:09:17.189Z,75.37
2016-09-27T08:10:17.219Z,74.89
2016-09-27T08:11:17.229Z,74.98
2016-09-27T08:12:17.261Z,74.41
2016-09-27T08:13:17.273Z,74.22
2016-09-27T08:14:17.285Z,74.02
2016-09-27T08:15:17.312Z,73.83
2016-09-27T08:16:17.335Z,73.77
2016-09-27T08:17:17.352Z,73.68
2016-09-27T08:18:17.371Z,73.49
2016-09-27T08:19:17.392Z,73.58
2016-09-27T08:20:17.420Z,73.58
2016-09-27T08:21:17.442Z,73.49
2016-09-27T08:22:17.455Z,73.24
2016-09-27T08:23:17.482Z,73.62
2016-09-27T08:24:17.507Z,73.43
2016-09-27T08:25:17.521Z,73.43
2016-09-27T08:26:17.547Z,73.04
2016-09-27T08:27:17.560Z,73.14
2016-09-27T08:28:17.582Z,73.04
2016-09-27T08:29:17.597Z,73.04
2016-09-27T08:30:17.626Z,71.8
2016-09-27T08:31:17.648Z,71.98
2016-09-27T08:32:17.666Z,71.8
2016-09-27T08:33:17.695Z,72.37
2016-09-27T08:34:17.719Z,72.37
2016-09-27T08:35:17.731Z,71.98
2016-09-27T08:36:17.754Z,72.12
2016-09-27T08:37:17.777Z,71.55
2016-09-27T08:38:17.809Z,71.35
2016-09-27T08:39:17.817Z,71.35
2016-09-27T08:40:17.853Z,71.16
2016-09-27T08:41:17.859Z,71.64
2016-09-27T08:42:17.888Z,71.35
2016-09-27T08:43:17.903Z,71.55
2016-09-27T08:44:17.934Z,71.25
2016-09-27T08:45:17.944Z,71.73
2016-09-27T08:46:17.979Z,71.64
2016-09-27T08:47:18.046Z,71.64
2016-09-27T08:48:18.017Z,72.31
2016-09-27T08:49:18.038Z,71.96
2016-09-27T08:50:18.082Z,72.22
2016-09-27T08:51:18.084Z,72.12
2016-09-27T08:52:18.106Z,71.73
2016-09-27T08:53:18.118Z,71.93
2016-09-27T08:54:18.478Z,71.93
2016-09-27T08:55:18.160Z,72.31
2016-09-27T08:56:18.188Z,72.02
2016-09-27T08:57:18.206Z,72.16
2016-09-27T08:58:18.229Z,72.54
2016-09-27T08:59:18.250Z,71.93
2016-09-27T09:00:18.281Z,71.96
2016-09-27T09:01:18.296Z,72.06
2016-09-27T09:02:18.322Z,72.16
2016-09-27T09:03:18.338Z,72.16
2016-09-27T09:04:18.357Z,72.34
2016-09-27T09:05:18.380Z,71.96
2016-09-27T09:06:18.402Z,71.87
2016-09-27T09:07:18.423Z,71.87
2016-09-27T09:08:18.445Z,71.39
2016-09-27T09:09:18.470Z,70.81
2016-09-27T09:10:18.481Z,71.19
2016-09-27T09:11:18.510Z,70.72
2016-09-27T09:12:18.531Z,70.52
2016-09-27T09:13:18.559Z,70.33
2016-09-27T09:14:18.568Z,70.84
2016-09-27T09:15:18.591Z,70.84
2016-09-27T09:16:18.619Z,70.37
2016-09-27T09:17:18.643Z,70.07
2016-09-27T09:18:18.655Z,70.17
2016-09-27T09:19:18.683Z,70.65
2016-09-27T09:20:18.709Z,70.37
2016-09-27T09:21:18.732Z,70.65
2016-09-27T09:22:18.754Z,70.65
2016-09-27T09:23:18.768Z,70.75
2016-09-27T09:24:18.789Z,70.46
2016-09-27T09:25:18.820Z,70.75
2016-09-27T09:26:18.836Z,70.17
2016-09-27T09:27:18.857Z,70.56
2016-09-27T09:28:18.878Z,70.46
2016-09-27T09:29:18.896Z,70.56
2016-09-27T09:30:18.928Z,70.94
2016-09-27T09:31:18.948Z,70.07
2016-09-27T09:32:18.972Z,70.65
2016-09-27T09:33:18.995Z,70.56
2016-09-27T09:34:19.013Z,70.21
2016-09-27T09:35:19.047Z,68.67
2016-09-27T09:36:19.060Z,68.29
2016-09-27T09:37:19.080Z,68.67
2016-09-27T09:38:19.103Z,68.57
2016-09-27T09:39:19.127Z,68.38
2016-09-27T09:40:19.144Z,67.86
2016-09-27T09:41:19.160Z,67.1
2016-09-27T09:42:19.191Z,67.19
2016-09-27T09:43:19.218Z,67
2016-09-27T09:44:19.230Z,66.91
2016-09-27T09:45:19.258Z,66.81
2016-09-27T09:46:19.290Z,67
2016-09-27T09:47:19.302Z,67.1
2016-09-27T09:48:19.334Z,67.48
2016-09-27T09:49:19.344Z,67
2016-09-27T09:50:19.366Z,67.32
2016-09-27T09:51:19.386Z,67.13
2016-09-27T09:52:19.408Z,67.13
2016-09-27T09:53:19.433Z,66.46
2016-09-27T09:54:19.455Z,66.46
2016-09-27T09:55:19.472Z,66.46
2016-09-27T09:56:19.501Z,66.01
2016-09-27T09:57:19.517Z,66.3
2016-09-27T09:58:19.549Z,66.01
2016-09-27T09:59:19.566Z,65.91
2016-09-27T10:00:19.589Z,65.43
2016-09-27T10:01:19.603Z,64.95
2016-09-27T10:02:19.633Z,65.05
2016-09-27T10:03:19.656Z,64.76
2016-09-27T10:04:19.674Z,64.92
2016-09-27T10:05:19.694Z,65.3
2016-09-27T10:06:19.725Z,67.13
2016-09-27T10:07:19.755Z,67.03
2016-09-27T10:08:19.772Z,66.65
2016-09-27T10:09:19.793Z,66.65
2016-09-27T10:10:19.816Z,66.74
2016-09-27T10:11:19.833Z,67.42
2016-09-27T10:12:19.865Z,66.74
2016-09-27T10:13:19.876Z,67.42
2016-09-27T10:14:19.909Z,67.03
2016-09-27T10:15:19.924Z,67.03
2016-09-27T10:16:19.937Z,67.22
2016-09-27T10:17:19.969Z,66.65
2016-09-27T10:18:20.344Z,66.46
2016-09-27T10:19:20.011Z,66.36
2016-09-27T10:20:20.027Z,66.65
2016-09-27T10:21:20.057Z,65.97
2016-09-27T10:22:20.130Z,65.3
2016-09-27T10:23:20.132Z,65.5
2016-09-27T10:24:20.171Z,64.82
2016-09-27T10:25:20.172Z,65.01
2016-09-27T10:26:20.222Z,64.18
2016-09-27T10:27:20.230Z,63.22
2016-09-27T10:28:20.262Z,62.64
2016-09-27T10:29:20.257Z,62.06
2016-09-27T10:30:20.261Z,61.77
2016-09-27T10:31:20.268Z,61.71
2016-09-27T10:32:20.354Z,60.65
2016-09-27T10:33:20.342Z,60.2
2016-09-27T10:34:20.369Z,60.3
2016-09-27T10:35:20.401Z,59.94
2016-09-27T10:36:20.397Z,60.61
2016-09-27T10:37:20.410Z,60.23
2016-09-27T10:38:20.446Z,60.52
2016-09-27T10:39:20.460Z,60.13
2016-09-27T10:40:20.480Z,60.13
2016-09-27T10:41:20.501Z,60.13
2016-09-27T10:42:20.538Z,59.81
2016-09-27T10:43:20.547Z,59.43
2016-09-27T10:44:20.577Z,59.62
2016-09-27T10:45:20.589Z,59.62
2016-09-27T10:46:20.612Z,59.81
2016-09-27T10:47:20.637Z,59.62
2016-09-27T10:48:20.658Z,59.23
2016-09-27T10:49:20.686Z,59.23
2016-09-27T10:50:20.717Z,59.43
2016-09-27T10:51:20.727Z,59.23
2016-09-27T10:52:20.756Z,58.65
2016-09-27T10:53:20.775Z,58.75
2016-09-27T10:54:20.797Z,58.95
2016-09-27T10:55:20.815Z,58.97
2016-09-27T10:56:20.849Z,58.88
2016-09-27T10:57:20.867Z,59.27
2016-09-27T10:58:20.897Z,58.69
2016-09-27T10:59:20.908Z,59.17
2016-09-27T11:00:20.929Z,59.07
2016-09-27T11:01:20.958Z,58.88
2016-09-27T11:02:20.987Z,59.27
2016-09-27T11:03:21.003Z,59.17
2016-09-27T11:04:21.028Z,57.82
2016-09-27T11:05:21.045Z,57.62
2016-09-27T11:06:21.075Z,57.14
2016-09-27T11:07:21.096Z,57.72
2016-09-27T11:08:21.112Z,57.53
2016-09-27T11:09:21.157Z,58.72
2016-09-27T11:10:21.165Z,59.3
2016-09-27T11:11:21.189Z,60.26
2016-09-27T11:12:21.219Z,60.71
2016-09-27T11:13:21.242Z,60.52
2016-09-27T11:14:21.266Z,60.42
2016-09-27T11:15:21.277Z,60.8
2016-09-27T11:16:21.310Z,61.48
2016-09-27T11:17:21.327Z,60.87
2016-09-27T11:18:21.355Z,60.2
2016-09-27T11:19:21.373Z,59.72
2016-09-27T11:20:21.394Z,59.65
2016-09-27T11:21:21.419Z,60.13
2016-09-27T11:22:21.450Z,60.32
2016-09-27T11:23:21.468Z,60.52
2016-09-27T11:24:21.489Z,61.1
2016-09-27T11:25:21.506Z,61.29
2016-09-27T11:26:21.536Z,60.87
2016-09-27T11:27:21.558Z,61.29
2016-09-27T11:28:21.575Z,61.19
2016-09-27T11:29:21.600Z,61.48
2016-09-27T11:30:21.630Z,61.48
2016-09-27T11:31:21.638Z,61.68
2016-09-27T11:32:21.685Z,61.77
2016-09-27T11:33:21.693Z,61.77
2016-09-27T11:34:21.717Z,61.68
2016-09-27T11:35:21.741Z,61.25
2016-09-27T11:36:21.778Z,60.9
2016-09-27T11:37:21.791Z,61.07
2016-09-27T11:38:21.804Z,60.71
2016-09-27T11:39:21.837Z,60.52
2016-09-27T11:40:21.855Z,59.45
2016-09-27T11:41:21.874Z,59.45
2016-09-27T11:42:21.903Z,59.17
2016-09-27T11:43:21.918Z,59
2016-09-27T11:45:21.968Z,58.23
2016-09-27T11:46:21.997Z,58.14
2016-09-27T11:47:22.016Z,57.27
2016-09-27T11:48:22.034Z,57.24
2016-09-27T11:49:22.064Z,57.82
2016-09-27T11:50:22.085Z,58.49
2016-09-27T11:51:22.108Z,58.49
2016-09-27T11:52:22.125Z,58.69
2016-09-27T11:53:22.144Z,58.97
2016-09-27T11:54:22.179Z,58.27
2016-09-27T11:55:22.200Z,58.49
2016-09-27T11:56:22.219Z,58.2
2016-09-27T11:57:22.248Z,58.69
2016-09-27T11:58:22.270Z,58.78
2016-09-27T11:59:22.288Z,57.92
2016-09-27T12:00:22.322Z,57.92
2016-09-27T12:01:22.336Z,57.43
2016-09-27T12:02:22.368Z,57.07
2016-09-27T12:03:22.386Z,57.07
2016-09-27T12:04:22.418Z,56.69
2016-09-27T12:05:22.431Z,56.01
2016-09-27T12:06:22.467Z,55.76
2016-09-27T12:07:22.484Z,55.27
2016-09-27T12:08:22.505Z,54.6
2016-09-27T12:09:22.583Z,54.79
2016-09-27T12:10:22.552Z,54.98
2016-09-27T12:11:22.568Z,54.79
2016-09-27T12:12:22.605Z,54.88
2016-09-27T12:13:22.616Z,54.69
2016-09-27T12:14:22.643Z,54.88
2016-09-27T12:15:22.659Z,54.98
2016-09-27T12:16:22.693Z,54.88
2016-09-27T12:17:22.716Z,55.08
2016-09-27T12:18:22.737Z,54.53
2016-09-27T12:19:22.765Z,53.85
2016-09-27T12:20:22.783Z,53.37
2016-09-27T12:21:22.812Z,52.79
2016-09-27T12:22:22.839Z,52.69
2016-09-27T12:23:22.857Z,52.91
2016-09-27T12:24:22.886Z,52.62
2016-09-27T12:25:22.912Z,52.53
2016-09-27T12:26:22.931Z,52.62
2016-09-27T12:27:22.951Z,52.33
2016-09-27T12:28:22.972Z,52.14
2016-09-27T12:29:22.999Z,51.85
2016-09-27T12:30:23.008Z,51.46
2016-09-27T12:31:23.041Z,50.98
2016-09-27T12:32:23.068Z,50.89
2016-09-27T12:33:23.096Z,50.5
2016-09-27T12:34:23.114Z,49.85
2016-09-27T12:35:23.142Z,50.13
2016-09-27T12:36:23.159Z,50.23
2016-09-27T12:37:23.188Z,50.13
2016-09-27T12:38:23.220Z,50.13
2016-09-27T12:39:23.244Z,49.58
2016-09-27T12:40:23.260Z,49.77
2016-09-27T12:41:23.289Z,49.58
2016-09-27T12:42:23.297Z,49.49
2016-09-27T12:43:23.329Z,49.49
2016-09-27T12:44:23.525Z,49.58
2016-09-27T12:45:23.659Z,49.58
2016-09-27T12:46:23.495Z,48.71
2016-09-27T12:47:23.523Z,48.81
2016-09-27T12:48:23.560Z,48.71
2016-09-27T12:49:23.598Z,48.71
2016-09-27T12:50:23.615Z,49.49
2016-09-27T12:51:23.613Z,49.95
2016-09-27T12:52:23.670Z,50.13
2016-09-27T12:53:23.709Z,50.62
2016-09-27T12:54:23.796Z,50.4
2016-09-27T12:55:23.748Z,51.17
2016-09-27T12:56:23.767Z,51.37
2016-09-27T12:57:23.798Z,51.73